createdAt,value
2023-01-13T00:00:00.508Z,10.6
2023-01-13T00:05:00.569Z,10.5
2023-01-13T00:10:00.471Z,10.5
2023-01-13T00:15:00.519Z,10.5
2023-01-13T00:20:00.452Z,10.3
2023-01-13T00:25:00.504Z,10.3
2023-01-13T00:30:00.516Z,10.2
2023-01-13T00:35:00.493Z,10.1
2023-01-13T00:40:00.507Z,9.9
2023-01-13T00:45:00.502Z,9.8
2023-01-13T00:50:00.497Z,9.6
2023-01-13T00:55:00.487Z,9.5
2023-01-13T01:00:00.501Z,9.5
2023-01-13T01:05:00.502Z,9.4
2023-01-13T01:10:00.475Z,9.4
2023-01-13T01:15:00.487Z,9.3
2023-01-13T01:20:00.480Z,9.3
2023-01-13T01:25:00.495Z,9.3
2023-01-13T01:30:00.508Z,9.4
2023-01-13T01:35:00.522Z,9.2
2023-01-13T01:40:00.471Z,9.2
2023-01-13T01:45:00.485Z,9.2
2023-01-13T01:50:00.487Z,9.1
2023-01-13T01:55:00.517Z,9.1
2023-01-13T02:00:00.459Z,9.2
2023-01-13T02:05:00.503Z,9.0
2023-01-13T02:10:00.487Z,9.0
2023-01-13T02:15:00.476Z,9.0
2023-01-13T02:20:00.491Z,9.0
2023-01-13T02:25:00.512Z,9.0
2023-01-13T02:30:00.482Z,9.0
2023-01-13T02:35:00.499Z,9.1
2023-01-13T02:40:00.507Z,9.1
2023-01-13T02:45:00.464Z,9.1
2023-01-13T02:50:00.487Z,9.1
2023-01-13T02:55:00.483Z,9.1
2023-01-13T03:00:00.484Z,9.0
2023-01-13T03:05:00.460Z,9.0
2023-01-13T03:10:00.482Z,8.9
2023-01-13T03:15:00.468Z,8.9
2023-01-13T03:20:00.494Z,8.9
2023-01-13T03:25:00.461Z,8.8
2023-01-13T03:30:00.444Z,8.7
2023-01-13T03:35:00.498Z,8.7
2023-01-13T03:40:00.462Z,8.7
2023-01-13T03:45:00.463Z,8.6
2023-01-13T03:50:00.433Z,8.5
2023-01-13T03:55:00.467Z,8.5
2023-01-13T04:00:00.449Z,8.4
2023-01-13T04:05:00.470Z,8.4
2023-01-13T04:10:02.020Z,8.4
2023-01-13T04:15:00.497Z,8.4
2023-01-13T04:20:00.429Z,8.5
2023-01-13T04:25:00.491Z,8.4
2023-01-13T04:30:00.434Z,8.3
2023-01-13T04:35:00.458Z,8.4
2023-01-13T04:40:00.454Z,8.3
2023-01-13T04:45:00.467Z,8.2
2023-01-13T04:50:00.430Z,8.2
2023-01-13T04:55:00.473Z,8.3
2023-01-13T05:00:00.454Z,8.2
2023-01-13T05:05:00.539Z,8.2
2023-01-13T05:10:00.460Z,8.2
2023-01-13T05:15:00.428Z,8.3
2023-01-13T05:20:00.487Z,8.3
2023-01-13T05:25:00.482Z,8.2
2023-01-13T05:30:00.485Z,8.3
2023-01-13T05:35:00.465Z,8.3
2023-01-13T05:40:00.464Z,8.2
2023-01-13T05:45:00.473Z,8.4
2023-01-13T05:50:00.436Z,8.2
2023-01-13T05:55:00.468Z,8.4
2023-01-13T06:00:00.481Z,8.4
2023-01-13T06:05:00.491Z,8.3
2023-01-13T06:10:00.449Z,8.4
2023-01-13T06:15:00.501Z,8.5
2023-01-13T06:20:00.483Z,8.3
2023-01-13T06:25:00.471Z,8.3
2023-01-13T06:30:00.461Z,8.2
2023-01-13T06:35:00.500Z,8.3
2023-01-13T06:40:00.447Z,8.3
2023-01-13T06:45:00.495Z,8.3
2023-01-13T06:50:00.441Z,8.3
2023-01-13T06:55:00.479Z,8.2
2023-01-13T07:00:00.466Z,8.3
2023-01-13T07:05:00.487Z,8.4
2023-01-13T07:10:00.469Z,8.3
2023-01-13T07:15:00.467Z,8.4
2023-01-13T07:20:00.474Z,8.4
2023-01-13T07:25:00.479Z,8.4
2023-01-13T07:30:00.450Z,8.4
2023-01-13T07:35:00.528Z,8.4
2023-01-13T07:40:00.445Z,8.4
2023-01-13T07:45:00.494Z,8.4
2023-01-13T07:50:00.489Z,8.4
2023-01-13T07:55:00.489Z,8.4
2023-01-13T08:00:00.443Z,8.4
2023-01-13T08:05:00.491Z,8.5
2023-01-13T08:10:00.487Z,8.5
2023-01-13T08:15:00.466Z,8.7
2023-01-13T08:20:00.491Z,8.6
2023-01-13T08:25:00.629Z,8.7
2023-01-13T08:30:00.467Z,8.8
2023-01-13T08:35:00.476Z,8.9
2023-01-13T08:40:00.506Z,9.0
2023-01-13T08:45:00.476Z,9.1
2023-01-13T08:50:00.477Z,9.3
2023-01-13T08:55:00.451Z,9.1
2023-01-13T09:00:00.526Z,9.1
2023-01-13T09:05:00.486Z,9.2
2023-01-13T09:10:00.466Z,9.1
2023-01-13T09:15:00.473Z,9.5
2023-01-13T09:20:00.483Z,9.4
2023-01-13T09:25:00.497Z,9.5
2023-01-13T09:30:00.449Z,9.7
2023-01-13T09:35:00.549Z,9.8
2023-01-13T09:40:00.491Z,9.6
2023-01-13T09:45:00.498Z,9.4
2023-01-13T09:50:00.447Z,9.3
2023-01-13T09:55:00.478Z,9.2
2023-01-13T10:00:00.505Z,9.4
2023-01-13T10:05:00.614Z,9.2
2023-01-13T10:10:00.490Z,9.1
2023-01-13T10:15:00.466Z,9.1
2023-01-13T10:20:00.475Z,9.1
2023-01-13T10:25:00.510Z,9.0
2023-01-13T10:30:00.468Z,9.1
2023-01-13T10:35:00.486Z,9.3
2023-01-13T10:40:00.454Z,9.3
2023-01-13T10:45:00.494Z,9.1
2023-01-13T10:50:00.456Z,9.1
2023-01-13T10:55:00.476Z,9.1
2023-01-13T11:00:00.488Z,8.9
2023-01-13T11:05:00.610Z,8.2
2023-01-13T11:10:00.439Z,8.1
2023-01-13T11:15:00.494Z,8.3
2023-01-13T11:20:00.483Z,8.4
2023-01-13T11:25:00.468Z,8.4
2023-01-13T11:30:00.441Z,8.6
2023-01-13T11:35:00.500Z,8.9
2023-01-13T11:40:00.453Z,9.7
2023-01-13T11:45:00.499Z,9.7
2023-01-13T11:50:00.469Z,9.5
2023-01-13T11:55:00.536Z,9.6
2023-01-13T12:00:00.464Z,9.2
2023-01-13T12:05:00.467Z,8.9
2023-01-13T12:10:00.484Z,8.7
2023-01-13T12:15:00.483Z,8.6
2023-01-13T12:20:00.503Z,8.4
2023-01-13T12:25:00.440Z,8.5
2023-01-13T12:30:00.482Z,8.4
2023-01-13T12:35:00.475Z,8.4
2023-01-13T12:40:02.023Z,8.6
2023-01-13T12:45:00.511Z,8.5
2023-01-13T12:50:00.447Z,8.4
2023-01-13T12:55:00.500Z,8.5
2023-01-13T13:00:00.463Z,8.2
2023-01-13T13:05:00.504Z,8.4
2023-01-13T13:10:00.500Z,8.3
2023-01-13T13:15:02.991Z,8.3
2023-01-13T13:20:00.493Z,8.3
2023-01-13T13:25:00.477Z,8.4
2023-01-13T13:30:00.497Z,8.4
2023-01-13T13:35:00.452Z,8.1
2023-01-13T13:40:00.563Z,8.1
2023-01-13T13:45:00.425Z,8.0
2023-01-13T13:50:00.499Z,8.1
2023-01-13T13:55:00.463Z,8.0
2023-01-13T14:00:00.482Z,8.0
2023-01-13T14:05:00.471Z,8.1
2023-01-13T14:10:00.467Z,7.9
2023-01-13T14:15:00.389Z,8.0
2023-01-13T14:20:00.445Z,8.0
2023-01-13T14:25:00.452Z,8.0
2023-01-13T14:30:00.487Z,8.1
2023-01-13T14:35:00.389Z,8.1
2023-01-13T14:40:00.424Z,8.2
2023-01-13T14:45:00.380Z,8.2
2023-01-13T14:50:00.399Z,8.2
2023-01-13T14:55:00.410Z,8.1
2023-01-13T15:00:00.458Z,8.3
2023-01-13T15:05:00.396Z,8.2
2023-01-13T15:10:00.399Z,8.1
2023-01-13T15:15:00.364Z,7.9
2023-01-13T15:20:00.377Z,7.7
2023-01-13T15:25:00.443Z,7.7
2023-01-13T15:30:00.361Z,7.5
2023-01-13T15:35:00.550Z,7.1
2023-01-13T15:40:00.423Z,7.1
2023-01-13T15:45:00.392Z,6.9
2023-01-13T15:50:00.387Z,6.7
2023-01-13T15:55:00.456Z,6.8
2023-01-13T16:00:00.357Z,6.8
2023-01-13T16:05:00.584Z,6.9
2023-01-13T16:10:00.393Z,7.1
2023-01-13T16:15:00.418Z,6.9
2023-01-13T16:20:00.389Z,7.1
2023-01-13T16:25:00.442Z,7.3
2023-01-13T16:30:00.396Z,7.2
2023-01-13T16:35:00.451Z,7.1
2023-01-13T16:40:00.486Z,7.1
2023-01-13T16:45:00.470Z,7.1
2023-01-13T16:50:00.494Z,7.0
2023-01-13T16:55:00.468Z,7.2
2023-01-13T17:00:00.539Z,8.3
2023-01-13T17:05:00.463Z,8.5
2023-01-13T17:10:00.485Z,8.6
2023-01-13T17:15:00.474Z,7.7
2023-01-13T17:20:00.518Z,7.6
2023-01-13T17:25:00.488Z,7.6
2023-01-13T17:30:00.448Z,7.5
2023-01-13T17:35:00.469Z,7.4
2023-01-13T17:40:00.518Z,7.4
2023-01-13T17:45:00.486Z,7.4
2023-01-13T17:50:00.445Z,7.4
2023-01-13T17:55:00.539Z,7.4
2023-01-13T18:00:00.441Z,7.3
2023-01-13T18:05:00.487Z,7.3
2023-01-13T18:10:00.475Z,7.2
2023-01-13T18:15:00.456Z,7.2
2023-01-13T18:20:00.502Z,7.1
2023-01-13T18:25:00.482Z,7.0
2023-01-13T18:30:00.490Z,6.9
2023-01-13T18:35:05.743Z,6.9
2023-01-13T18:40:00.469Z,6.9
2023-01-13T18:45:00.486Z,6.8
2023-01-13T18:50:00.460Z,6.8
2023-01-13T18:55:00.465Z,6.8
2023-01-13T19:00:00.479Z,6.8
2023-01-13T19:05:00.488Z,6.8
2023-01-13T19:10:00.452Z,6.7
2023-01-13T19:15:00.494Z,6.8
2023-01-13T19:20:00.449Z,6.7
2023-01-13T19:25:00.475Z,6.6
2023-01-13T19:30:01.090Z,6.6
2023-01-13T19:35:00.516Z,6.8
2023-01-13T19:40:00.426Z,6.8
2023-01-13T19:45:00.464Z,6.9
2023-01-13T19:50:00.437Z,6.9
2023-01-13T19:55:00.646Z,6.9
2023-01-13T20:00:00.505Z,6.9
2023-01-13T20:05:00.471Z,6.9
2023-01-13T20:10:00.425Z,6.9
2023-01-13T20:15:00.460Z,6.9
2023-01-13T20:20:00.453Z,6.9
2023-01-13T20:25:00.476Z,6.9
2023-01-13T20:30:00.442Z,6.9
2023-01-13T20:35:00.457Z,6.9
2023-01-13T20:40:00.427Z,6.9
2023-01-13T20:45:00.458Z,6.9
2023-01-13T20:50:00.485Z,6.9
2023-01-13T20:55:00.467Z,6.9
2023-01-13T21:00:00.503Z,6.9
2023-01-13T21:05:00.458Z,6.9
2023-01-13T21:10:00.488Z,6.9
2023-01-13T21:15:00.428Z,6.9
2023-01-13T21:20:00.472Z,6.9
2023-01-13T21:25:00.462Z,6.9
2023-01-13T21:30:00.538Z,6.9
2023-01-13T21:35:00.438Z,6.9
2023-01-13T21:40:00.514Z,6.8
2023-01-13T21:45:00.480Z,6.9
2023-01-13T21:50:00.501Z,6.8
2023-01-13T21:55:00.455Z,6.8
2023-01-13T22:00:00.735Z,6.8
2023-01-13T22:05:00.479Z,7.5
2023-01-13T22:10:00.443Z,7.0
2023-01-13T22:15:00.644Z,7.0
2023-01-13T22:20:00.438Z,6.9
2023-01-13T22:25:00.483Z,6.9
2023-01-13T22:30:00.499Z,7.0
2023-01-13T22:35:00.476Z,6.9
2023-01-13T22:40:00.435Z,7.0
2023-01-13T22:45:00.629Z,6.9
2023-01-13T22:50:00.449Z,7.0
2023-01-13T22:55:00.482Z,7.0
2023-01-13T23:00:00.477Z,6.9
2023-01-13T23:05:03.000Z,6.9
2023-01-13T23:10:00.447Z,6.9
2023-01-13T23:15:00.470Z,7.1
2023-01-13T23:20:00.474Z,7.0
2023-01-13T23:25:00.489Z,6.9
2023-01-13T23:30:00.430Z,7.0
2023-01-13T23:35:00.482Z,7.0
2023-01-13T23:40:00.498Z,7.0
2023-01-13T23:45:00.429Z,7.1
2023-01-13T23:50:00.476Z,7.0
2023-01-13T23:55:00.453Z,7.1
